Time;durP1;ratioP1;P1;durP2;ratioP2;P2;SDS_P1;SDS_P2;PMS_P1;PMS_P2;Temp;Humidity;BMP_temperature;BMP_pressure;BME280_temperature;BME280_humidity;BME280_pressure;Samples;Min_cycle;Max_cycle;Signal;HPM_P1;HPM_P2
2023/05/05 00:00:34;;;;;;;;;;;;;;;12.52;60.03;98949.44;5049898;28;19921;-80
2023/05/05 00:02:59;;;;;;;;;;;;;;;12.49;60.03;98952.63;5049846;28;19960;-78
2023/05/05 00:05:25;;;;;;;;;;;;;;;12.42;60.38;98950.19;5046227;28;19974;-78
2023/05/05 00:07:50;;;;;;;;;;;;;;;12.38;60.31;98942.94;5052124;28;19966;-78
2023/05/05 00:10:15;;;;;;;;;;;;;;;12.34;60.64;98947.19;5051106;28;19927;-78
2023/05/05 00:12:40;;;;;;;;;;;;;;;12.27;60.60;98941.25;5049001;28;19935;-77
2023/05/05 00:15:06;;;;;;;;;;;;;;;12.20;60.98;98938.78;5052168;28;20376;-77
2023/05/05 00:17:31;;;;;;;;;;;;;;;12.18;60.68;98938.22;5069609;28;19922;-77
2023/05/05 00:19:58;;;;;;;;;;;;;;;12.14;60.99;98931.78;5065675;28;20011;-78
2023/05/05 00:22:23;;;;;;;;;;;;;;;12.14;61.23;98930.97;5051340;28;20298;-80
2023/05/05 00:24:48;;;;;;;;;;;;;;;12.07;60.99;98927.69;5067120;28;20011;-80
2023/05/05 00:27:14;;;;;;;;;;;;;;;12.05;61.35;98919.94;5044451;28;20410;-80
2023/05/05 00:29:39;;;;;;;;;;;;;;;12.06;61.01;98924.22;5043551;28;20311;-80
2023/05/05 00:32:04;;;;;;;;;;;;;;;11.99;61.29;98918.28;5046942;28;19925;-80
2023/05/05 00:34:29;;;;;;;;;;;;;;;11.96;61.57;98916.13;5065802;28;20951;-80
2023/05/05 00:36:55;;;;;;;;;;;;;;;11.89;61.37;98923.53;5043794;28;20023;-80
2023/05/05 00:39:20;;;;;;;;;;;;;;;11.90;61.46;98917.16;5045327;28;19924;-80
2023/05/05 00:41:45;;;;;;;;;;;;;;;11.83;61.92;98916.53;5065768;28;19921;-80
2023/05/05 00:44:11;;;;;;;;;;;;;;;11.83;61.64;98914.69;5061359;28;19939;-80
2023/05/05 00:46:36;;;;;;;;;;;;;;;11.80;61.42;98909.84;5066471;28;20022;-80
2023/05/05 00:49:01;;;;;;;;;;;;;;;11.74;61.65;98908.19;5045409;28;19934;-80
2023/05/05 00:51:27;;;;;;;;;;;;;;;11.74;61.56;98905.50;5065341;28;19948;-80
2023/05/05 00:53:52;;;;;;;;;;;;;;;11.68;62.19;98903.84;5065085;28;19926;-80
2023/05/05 00:56:18;;;;;;;;;;;;;;;11.74;62.16;98896.66;5045006;28;19920;-80
2023/05/05 00:58:44;;;;;;;;;;;;;;;11.62;62.39;98896.00;5065785;28;19956;-80
2023/05/05 01:01:10;;;;;;;;;;;;;;;11.51;62.10;98911.13;5049336;28;19920;-80
2023/05/05 01:03:40;;;;;;;;;;;;;;;11.52;62.12;98898.56;5068000;28;19927;-80
2023/05/05 01:06:05;;;;;;;;;;;;;;;11.51;62.41;98900.44;5067188;28;19946;-80
2023/05/05 01:08:31;;;;;;;;;;;;;;;11.49;62.17;98907.13;5071007;28;19917;-80
2023/05/05 01:11:01;;;;;;;;;;;;;;;11.49;62.29;98913.25;5050507;28;19946;-80
2023/05/05 01:13:26;;;;;;;;;;;;;;;11.46;61.94;98910.28;5071177;28;21725;-80
2023/05/05 01:15:58;;;;;;;;;;;;;;;11.41;62.74;98904.88;5048498;28;19924;-80
2023/05/05 01:18:23;;;;;;;;;;;;;;;11.41;62.43;98899.53;5066648;28;19921;-80
2023/05/05 01:20:54;;;;;;;;;;;;;;;11.36;62.61;98902.97;5049005;28;19917;-80
2023/05/05 01:23:40;;;;;;;;;;;;;;;11.36;62.57;98900.28;5050833;28;20265;-80
2023/05/05 01:26:32;;;;;;;;;;;;;;;11.33;62.21;98896.25;5052798;28;20368;-80
2023/05/05 01:29:05;;;;;;;;;;;;;;;11.33;62.28;98890.91;5048742;28;20281;-80
2023/05/05 01:31:37;;;;;;;;;;;;;;;11.29;62.71;98897.03;5068142;28;19916;-80
2023/05/05 01:34:04;;;;;;;;;;;;;;;11.28;62.41;98892.72;5069458;28;19920;-80
2023/05/05 01:36:33;;;;;;;;;;;;;;;11.24;62.49;98896.97;5052381;28;19943;-80
2023/05/05 01:39:00;;;;;;;;;;;;;;;11.25;62.41;98894.03;5049154;28;19925;-80
2023/05/05 01:41:31;;;;;;;;;;;;;;;11.26;63.05;98889.50;5064499;28;19916;-79
2023/05/05 01:43:59;;;;;;;;;;;;;;;11.22;62.73;98891.06;5043685;28;19925;-80
2023/05/05 01:46:24;;;;;;;;;;;;;;;11.20;62.71;98896.66;5043842;28;19943;-80
2023/05/05 01:48:50;;;;;;;;;;;;;;;11.20;62.76;98890.50;5043887;28;19921;-80
2023/05/05 01:51:17;;;;;;;;;;;;;;;11.21;62.79;98894.78;5058318;28;19924;-80
2023/05/05 01:53:45;;;;;;;;;;;;;;;11.21;63.12;98894.78;5060027;28;19978;-81
2023/05/05 01:56:11;;;;;;;;;;;;;;;11.21;63.41;98900.94;5046476;28;19975;-80
2023/05/05 01:58:37;;;;;;;;;;;;;;;11.19;63.56;98891.56;5042093;28;20404;-80
2023/05/05 02:01:02;;;;;;;;;;;;;;;11.13;63.74;98885.38;5042404;28;20709;-80
2023/05/05 02:03:30;;;;;;;;;;;;;;;11.15;63.31;98893.94;5041339;28;20664;-80
2023/05/05 02:05:57;;;;;;;;;;;;;;;11.12;63.56;98890.94;5046655;28;19924;-80
2023/05/05 02:08:23;;;;;;;;;;;;;;;11.05;63.61;98888.47;5063657;28;19966;-80
2023/05/05 02:10:48;;;;;;;;;;;;;;;11.04;64.04;98878.84;5048719;28;19959;-80
2023/05/05 02:13:14;;;;;;;;;;;;;;;11.00;64.21;98876.94;5040245;28;20611;-80
2023/05/05 02:15:40;;;;;;;;;;;;;;;10.89;64.73;98880.53;5043595;28;19956;-80
2023/05/05 02:18:06;;;;;;;;;;;;;;;10.86;64.69;98875.69;5043124;28;20277;-80
2023/05/05 02:20:32;;;;;;;;;;;;;;;10.84;64.28;98870.59;5030875;28;19920;-80
2023/05/05 02:22:57;;;;;;;;;;;;;;;10.86;64.72;98878.34;5044359;28;19927;-80
2023/05/05 02:25:25;;;;;;;;;;;;;;;10.87;64.59;98870.13;5044670;28;19982;-80
2023/05/05 02:27:54;;;;;;;;;;;;;;;10.85;64.66;98869.56;5061852;28;19924;-80
2023/05/05 02:30:20;;;;;;;;;;;;;;;10.84;64.70;98870.59;5061080;28;19956;-80
2023/05/05 02:32:49;;;;;;;;;;;;;;;10.84;64.82;98869.78;5044407;28;20633;-80
2023/05/05 02:35:18;;;;;;;;;;;;;;;10.82;64.51;98866.56;5065388;28;19990;-80
2023/05/05 02:37:45;;;;;;;;;;;;;;;10.87;64.55;98866.63;5063664;28;19963;-80
2023/05/05 02:40:12;;;;;;;;;;;;;;;10.87;64.55;98875.47;5047109;28;20291;-80
2023/05/05 02:42:39;;;;;;;;;;;;;;;10.85;65.12;98871.41;5064504;28;19920;-80
2023/05/05 02:45:10;;;;;;;;;;;;;;;10.80;64.74;98874.03;5068273;28;20315;-80
2023/05/05 02:47:38;;;;;;;;;;;;;;;10.76;64.74;98871.06;5065883;28;19954;-80
2023/05/05 02:50:04;;;;;;;;;;;;;;;10.73;65.03;98866.19;5048321;28;19999;-80
2023/05/05 02:52:30;;;;;;;;;;;;;;;10.72;64.94;98858.44;5068153;28;20058;-80
2023/05/05 02:54:55;;;;;;;;;;;;;;;10.54;65.63;98862.22;5067378;28;19920;-80
2023/05/05 02:57:25;;;;;;;;;;;;;;;10.53;66.04;98863.28;5070963;28;20070;-80
2023/05/05 03:00:17;;;;;;;;;;;;;;;10.61;65.04;98860.19;5070030;28;19959;-78
2023/05/05 03:03:01;;;;;;;;;;;;;;;10.63;65.37;98851.94;5039410;28;19916;-78
2023/05/05 03:05:32;;;;;;;;;;;;;;;10.59;65.25;98853.47;5069610;28;19931;-78
2023/05/05 03:08:08;;;;;;;;;;;;;;;10.60;65.35;98850.56;5051897;28;19929;-79
2023/05/05 03:10:37;;;;;;;;;;;;;;;10.60;65.50;98850.56;5048649;28;19920;-78
2023/05/05 03:13:05;;;;;;;;;;;;;;;10.59;65.36;98848.16;5052656;28;19959;-78
2023/05/05 03:15:34;;;;;;;;;;;;;;;10.68;64.78;98852.00;5068538;28;20306;-78
2023/05/05 03:18:01;;;;;;;;;;;;;;;10.61;65.18;98848.69;5066369;28;19920;-78
2023/05/05 03:20:27;;;;;;;;;;;;;;;10.62;65.20;98844.97;5053679;28;19920;-78
2023/05/05 03:22:53;;;;;;;;;;;;;;;10.67;65.07;98845.84;5068149;28;19962;-78
2023/05/05 03:25:18;;;;;;;;;;;;;;;10.66;65.51;98844.22;5067008;28;19927;-79
2023/05/05 03:27:44;;;;;;;;;;;;;;;10.68;64.72;98847.44;5068088;28;20001;-78
2023/05/05 03:30:09;;;;;;;;;;;;;;;10.64;64.97;98851.66;5048781;28;20342;-78
2023/05/05 03:32:34;;;;;;;;;;;;;;;10.59;65.13;98848.97;5068836;28;19916;-78
2023/05/05 03:35:00;;;;;;;;;;;;;;;10.45;65.41;98840.50;5068205;28;19925;-78
2023/05/05 03:37:25;;;;;;;;;;;;;;;10.64;65.14;98841.00;5048534;28;19924;-78
2023/05/05 03:39:50;;;;;;;;;;;;;;;10.58;65.87;98844.66;5050383;28;20421;-78
2023/05/05 03:42:15;;;;;;;;;;;;;;;10.55;65.58;98843.28;5049325;28;19921;-78
2023/05/05 03:44:41;;;;;;;;;;;;;;;10.52;65.73;98841.13;5049147;28;19920;-78
2023/05/05 03:47:06;;;;;;;;;;;;;;;10.51;66.36;98846.69;5068118;28;19967;-78
2023/05/05 03:49:31;;;;;;;;;;;;;;;9.92;68.56;98845.59;5048967;28;19946;-78
2023/05/05 03:51:57;;;;;;;;;;;;;;;10.41;66.88;98836.72;5048586;28;19989;-78
2023/05/05 03:54:22;;;;;;;;;;;;;;;10.54;66.41;98830.19;5047170;28;19974;-78
2023/05/05 03:56:47;;;;;;;;;;;;;;;10.65;65.18;98837.28;5062639;28;19925;-78
2023/05/05 03:59:12;;;;;;;;;;;;;;;10.65;65.23;98831.94;5042832;28;19920;-78
2023/05/05 04:01:38;;;;;;;;;;;;;;;10.63;65.83;98831.38;5057494;28;19930;-78
2023/05/05 04:04:03;;;;;;;;;;;;;;;10.63;65.46;98833.25;5046946;28;19956;-78
2023/05/05 04:06:28;;;;;;;;;;;;;;;10.65;66.07;98839.94;5066172;28;20341;-79
2023/05/05 04:08:54;;;;;;;;;;;;;;;10.68;65.84;98846.66;5068989;28;19921;-79
2023/05/05 04:11:20;;;;;;;;;;;;;;;10.74;65.70;98843.00;5048140;28;19916;-79
2023/05/05 04:13:45;;;;;;;;;;;;;;;10.66;65.89;98838.88;5072675;28;19962;-79
2023/05/05 04:16:11;;;;;;;;;;;;;;;9.98;69.37;98831.28;5067446;28;19916;-79
2023/05/05 04:18:36;;;;;;;;;;;;;;;10.07;69.01;98831.69;5042007;28;19924;-79
2023/05/05 04:21:02;;;;;;;;;;;;;;;10.52;67.19;98835.78;5047268;28;19920;-78
2023/05/05 04:23:27;;;;;;;;;;;;;;;10.66;66.49;98840.75;5046607;28;19932;-78
2023/05/05 04:25:52;;;;;;;;;;;;;;;10.62;66.57;98847.63;5049389;28;19925;-78
2023/05/05 04:28:19;;;;;;;;;;;;;;;10.59;66.55;98848.16;5027916;28;19920;-78
2023/05/05 04:30:44;;;;;;;;;;;;;;;10.59;67.06;98835.63;5066511;28;20291;-79
2023/05/05 04:33:09;;;;;;;;;;;;;;;10.62;66.54;98842.28;5051709;28;19921;-78
2023/05/05 04:35:34;;;;;;;;;;;;;;;10.53;66.76;98841.91;5028125;28;20007;-78
2023/05/05 04:38:00;;;;;;;;;;;;;;;10.60;66.11;98836.41;5045007;28;20043;-78
2023/05/05 04:40:26;;;;;;;;;;;;;;;10.63;66.84;98842.06;5063426;28;19925;-78
2023/05/05 04:42:51;;;;;;;;;;;;;;;10.65;66.63;98845.28;5044143;28;19921;-78
2023/05/05 04:45:16;;;;;;;;;;;;;;;10.62;66.19;98847.63;5047230;28;19954;-79
2023/05/05 04:47:42;;;;;;;;;;;;;;;10.63;66.18;98842.06;5042613;28;19986;-78
2023/05/05 04:50:07;;;;;;;;;;;;;;;10.64;66.07;98850.88;5060546;28;19925;-78
2023/05/05 04:52:33;;;;;;;;;;;;;;;10.64;66.63;98846.31;5056332;28;21556;-79
2023/05/05 04:54:58;;;;;;;;;;;;;;;10.66;66.68;98854.09;5042002;28;20378;-78
2023/05/05 04:57:24;;;;;;;;;;;;;;;10.72;66.15;98861.13;5057281;28;19924;-78
2023/05/05 04:59:49;;;;;;;;;;;;;;;10.69;66.67;98856.25;5045393;28;19974;-78
2023/05/05 05:02:14;;;;;;;;;;;;;;;10.55;67.02;98845.16;5067655;28;19916;-78
2023/05/05 05:04:40;;;;;;;;;;;;;;;10.61;67.07;98851.38;5046352;28;19921;-78
2023/05/05 05:07:05;;;;;;;;;;;;;;;10.85;66.59;98858.88;5045523;28;20428;-79
2023/05/05 05:09:30;;;;;;;;;;;;;;;10.64;67.93;98864.22;5049959;28;19921;-78
2023/05/05 05:12:02;;;;;;;;;;;;;;;10.69;67.48;98861.59;5068936;28;19920;-78
2023/05/05 05:14:27;;;;;;;;;;;;;;;10.99;66.58;98864.63;5071780;28;19933;-79
2023/05/05 05:16:52;;;;;;;;;;;;;;;10.86;67.61;98860.47;5069251;28;20018;-79
2023/05/05 05:19:18;;;;;;;;;;;;;;;11.17;66.13;98869.63;5069451;28;19920;-78
2023/05/05 05:21:43;;;;;;;;;;;;;;;11.30;65.86;98871.91;5043856;28;19924;-79
2023/05/05 05:24:10;;;;;;;;;;;;;;;11.47;65.34;98877.94;5070836;28;19924;-79
2023/05/05 05:26:35;;;;;;;;;;;;;;;11.49;64.80;98865.13;5052676;28;19974;-78
2023/05/05 05:29:01;;;;;;;;;;;;;;;11.42;64.89;98859.22;5065482;28;20001;-78
2023/05/05 05:31:26;;;;;;;;;;;;;;;11.65;64.68;98863.41;5047712;28;20285;-78
2023/05/05 05:33:51;;;;;;;;;;;;;;;11.37;66.61;98869.03;5049159;28;19928;-78
2023/05/05 05:36:16;;;;;;;;;;;;;;;11.33;66.80;98868.75;5069153;28;19951;-78
2023/05/05 05:38:42;;;;;;;;;;;;;;;10.94;68.07;98867.25;5053817;28;19925;-78
2023/05/05 05:41:07;;;;;;;;;;;;;;;11.34;66.30;98865.00;5049956;28;19928;-78
2023/05/05 05:43:32;;;;;;;;;;;;;;;11.28;66.42;98864.16;5029498;28;19921;-78
2023/05/05 05:45:57;;;;;;;;;;;;;;;11.14;68.14;98868.28;5049631;28;19921;-78
2023/05/05 05:48:27;;;;;;;;;;;;;;;10.79;69.05;98869.75;5066997;28;20414;-78
2023/05/05 05:50:52;;;;;;;;;;;;;;;10.65;69.65;98873.84;5067457;28;20007;-78
2023/05/05 05:53:17;;;;;;;;;;;;;;;11.25;66.96;98864.66;5068832;28;20016;-78
2023/05/05 05:55:44;;;;;;;;;;;;;;;11.50;66.05;98864.09;5047025;28;20011;-78
2023/05/05 05:58:09;;;;;;;;;;;;;;;11.72;64.91;98870.19;5034372;28;19991;-78
2023/05/05 06:00:35;;;;;;;;;;;;;;;11.98;64.14;98871.19;5048246;28;19955;-78
2023/05/05 06:03:00;;;;;;;;;;;;;;;11.92;64.68;98878.38;5051026;28;20037;-79
2023/05/05 06:05:25;;;;;;;;;;;;;;;11.99;64.11;98881.63;5055564;28;19927;-78
2023/05/05 06:07:51;;;;;;;;;;;;;;;11.74;66.74;98877.94;5073456;28;19920;-79
2023/05/05 06:10:16;;;;;;;;;;;;;;;11.58;67.00;98876.97;5073456;28;19928;-78
2023/05/05 06:12:41;;;;;;;;;;;;;;;12.20;63.89;98871.06;5050891;28;19967;-78
2023/05/05 06:15:07;;;;;;;;;;;;;;;12.17;63.93;98877.75;5065670;28;19959;-78
2023/05/05 06:17:32;;;;;;;;;;;;;;;12.08;65.92;98878.50;5055477;28;20380;-78
2023/05/05 06:19:57;;;;;;;;;;;;;;;11.93;65.58;98882.66;5049913;28;19929;-78
2023/05/05 06:22:22;;;;;;;;;;;;;;;11.91;66.74;98873.28;5048844;28;19929;-78
2023/05/05 06:24:47;;;;;;;;;;;;;;;12.25;64.46;98876.47;5070731;28;19921;-78
2023/05/05 06:27:13;;;;;;;;;;;;;;;12.51;63.33;98873.69;5054390;28;19975;-78
2023/05/05 06:29:38;;;;;;;;;;;;;;;12.64;63.07;98883.91;5054788;28;19973;-79
2023/05/05 06:32:06;;;;;;;;;;;;;;;12.66;65.64;98872.94;5071823;28;19924;-78
2023/05/05 06:34:31;;;;;;;;;;;;;;;12.90;63.00;98878.66;5054582;28;19966;-78
2023/05/05 06:36:57;;;;;;;;;;;;;;;12.98;63.12;98873.59;5073148;28;19928;-78
2023/05/05 06:39:22;;;;;;;;;;;;;;;13.19;61.92;98872.59;5055283;28;20304;-78
2023/05/05 06:41:47;;;;;;;;;;;;;;;13.25;61.78;98879.63;5067998;28;21350;-78
2023/05/05 06:44:12;;;;;;;;;;;;;;;13.23;63.43;98880.94;5052134;28;19921;-78
2023/05/05 06:46:37;;;;;;;;;;;;;;;13.34;61.47;98883.38;5069515;28;19920;-79
2023/05/05 06:49:03;;;;;;;;;;;;;;;13.08;63.61;98880.91;5073942;28;19927;-79
2023/05/05 06:51:28;;;;;;;;;;;;;;;13.17;62.65;98880.09;5055196;28;20253;-79
2023/05/05 06:53:54;;;;;;;;;;;;;;;13.28;62.39;98872.91;5049011;28;20011;-79
2023/05/05 06:56:19;;;;;;;;;;;;;;;13.39;61.58;98875.34;5072283;28;20426;-78
2023/05/05 06:58:45;;;;;;;;;;;;;;;13.40;61.55;98876.97;5071111;28;19920;-78
2023/05/05 07:01:10;;;;;;;;;;;;;;;13.34;61.86;98882.56;5053552;28;19924;-79
2023/05/05 07:03:35;;;;;;;;;;;;;;;13.32;62.77;98877.47;5054608;28;19927;-78
2023/05/05 07:06:01;;;;;;;;;;;;;;;13.42;62.20;98876.69;5073890;28;19936;-79
2023/05/05 07:08:26;;;;;;;;;;;;;;;13.59;61.65;98868.38;5052701;28;19927;-79
2023/05/05 07:10:51;;;;;;;;;;;;;;;13.48;62.55;98870.25;5072649;28;19917;-79
2023/05/05 07:13:16;;;;;;;;;;;;;;;13.31;65.44;98867.00;5072100;28;19954;-78
2023/05/05 07:15:45;;;;;;;;;;;;;;;13.43;63.88;98868.38;5072539;28;19916;-79
2023/05/05 07:18:10;;;;;;;;;;;;;;;13.44;63.79;98874.53;5052935;28;19976;-78
2023/05/05 07:20:36;;;;;;;;;;;;;;;13.70;61.85;98868.13;5053101;28;19920;-79
2023/05/05 07:23:01;;;;;;;;;;;;;;;13.72;61.54;98865.16;5051877;28;19921;-78
2023/05/05 07:25:26;;;;;;;;;;;;;;;13.70;62.61;98868.13;5066247;28;19943;-78
2023/05/05 07:27:51;;;;;;;;;;;;;;;13.53;64.32;98868.41;5052906;28;20437;-78
2023/05/05 07:30:17;;;;;;;;;;;;;;;13.78;63.05;98872.16;5070103;28;19927;-78
2023/05/05 07:32:42;;;;;;;;;;;;;;;13.77;63.23;98867.88;5071266;28;19924;-78
2023/05/05 07:35:07;;;;;;;;;;;;;;;13.96;62.69;98867.06;5061906;28;20011;-78
2023/05/05 07:37:33;;;;;;;;;;;;;;;14.14;61.15;98861.13;5042984;28;19931;-79
2023/05/05 07:39:58;;;;;;;;;;;;;;;14.11;61.74;98860.84;5046311;28;20279;-78
2023/05/05 07:42:23;;;;;;;;;;;;;;;14.17;61.63;98862.47;5042332;28;20058;-79
2023/05/05 07:44:48;;;;;;;;;;;;;;;14.15;61.87;98856.56;5064011;28;19924;-78
2023/05/05 07:47:14;;;;;;;;;;;;;;;14.43;61.22;98853.31;5054587;28;19960;-79
2023/05/05 07:49:39;;;;;;;;;;;;;;;14.38;61.36;98845.28;5046010;28;19927;-79
2023/05/05 07:52:04;;;;;;;;;;;;;;;14.54;60.85;98849.53;5045315;28;19921;-78
2023/05/05 07:54:29;;;;;;;;;;;;;;;14.65;60.54;98858.34;5063023;28;20001;-78
2023/05/05 07:56:56;;;;;;;;;;;;;;;14.65;62.31;98858.34;5063337;28;19975;-78
2023/05/05 07:59:21;;;;;;;;;;;;;;;14.73;61.27;98857.78;5064763;28;19973;-78
2023/05/05 08:01:46;;;;;;;;;;;;;;;14.66;64.35;98850.00;5050288;28;20325;-78
2023/05/05 08:04:11;;;;;;;;;;;;;;;14.88;60.62;98861.22;5045917;28;20389;-79
2023/05/05 08:06:37;;;;;;;;;;;;;;;14.91;60.83;98866.03;5068457;28;20363;-79
2023/05/05 08:09:02;;;;;;;;;;;;;;;14.95;61.31;98869.78;5069392;28;19920;-79
2023/05/05 08:11:27;;;;;;;;;;;;;;;15.03;60.86;98868.38;5068108;28;19951;-78
2023/05/05 08:13:54;;;;;;;;;;;;;;;15.21;60.15;98870.44;5064828;28;20310;-79
2023/05/05 08:16:19;;;;;;;;;;;;;;;15.20;62.77;98868.81;5050293;28;20354;-78
2023/05/05 08:18:45;;;;;;;;;;;;;;;15.41;59.71;98864.16;5048898;28;20380;-78
2023/05/05 08:21:10;;;;;;;;;;;;;;;15.57;59.98;98858.41;5048916;28;20277;-78
2023/05/05 08:23:36;;;;;;;;;;;;;;;15.62;62.41;98854.88;5066657;28;19916;-79
2023/05/05 08:26:01;;;;;;;;;;;;;;;15.82;59.23;98851.22;5064415;28;19942;-78
2023/05/05 08:28:27;;;;;;;;;;;;;;;15.87;60.10;98849.31;5067457;28;19932;-78
2023/05/05 08:30:52;;;;;;;;;;;;;;;16.23;58.77;98844.38;5065862;28;19921;-78
2023/05/05 08:33:17;;;;;;;;;;;;;;;16.23;59.01;98850.56;5049714;28;19931;-79
2023/05/05 08:35:43;;;;;;;;;;;;;;;16.59;58.46;98850.22;5051625;28;20010;-78
2023/05/05 08:38:09;;;;;;;;;;;;;;;16.81;56.98;98845.09;5046689;28;20049;-78
2023/05/05 08:40:36;;;;;;;;;;;;;;;16.97;57.41;98844.59;5047724;28;19917;-79
2023/05/05 08:43:01;;;;;;;;;;;;;;;17.14;56.43;98861.13;5060963;28;19942;-78
2023/05/05 08:45:27;;;;;;;;;;;;;;;17.11;58.53;98863.59;5060999;28;19927;-78
2023/05/05 08:47:54;;;;;;;;;;;;;;;17.13;59.13;98864.91;5064896;28;19963;-78
2023/05/05 08:50:20;;;;;;;;;;;;;;;17.03;57.18;98862.34;5067950;28;21756;-78
2023/05/05 08:52:50;;;;;;;;;;;;;;;17.02;56.79;98862.63;5051069;28;19935;-78
2023/05/05 08:55:25;;;;;;;;;;;;;;;17.07;57.40;98865.25;5068875;28;19916;-79
2023/05/05 08:57:52;;;;;;;;;;;;;;;17.29;56.88;98873.59;5069885;28;19973;-79
2023/05/05 09:00:18;;;;;;;;;;;;;;;17.37;56.58;98864.81;5054149;28;19956;-78
2023/05/05 09:02:43;;;;;;;;;;;;;;;17.46;57.15;98864.97;5062239;28;20376;-78
2023/05/05 09:05:09;;;;;;;;;;;;;;;17.52;58.01;98872.72;5050539;28;20015;-79
2023/05/05 09:07:34;;;;;;;;;;;;;;;17.50;56.42;98869.53;5046651;28;20292;-79
2023/05/05 09:10:01;;;;;;;;;;;;;;;17.55;55.93;98869.47;5066169;28;19970;-79
2023/05/05 09:12:30;;;;;;;;;;;;;;;17.56;56.01;98873.75;5049182;28;19928;-79
2023/05/05 09:14:56;;;;;;;;;;;;;;;17.43;56.17;98876.38;5063681;28;19920;-80
2023/05/05 09:17:24;;;;;;;;;;;;;;;17.39;56.39;98880.72;5066898;28;19921;-78
2023/05/05 09:20:02;;;;;;;;;;;;;;;17.38;56.62;98888.03;5070192;28;19924;-79
2023/05/05 09:22:37;;;;;;;;;;;;;;;17.41;56.70;98889.34;5066978;28;19966;-79
2023/05/05 09:25:03;;;;;;;;;;;;;;;17.54;57.25;98884.03;5065082;28;19936;-78
2023/05/05 09:27:29;;;;;;;;;;;;;;;17.51;56.63;98895.44;5046492;28;19974;-79
2023/05/05 09:29:55;;;;;;;;;;;;;;;17.39;63.48;98884.22;5047472;28;19928;-79
2023/05/05 09:32:21;;;;;;;;;;;;;;;17.30;63.45;98885.97;5046555;28;19924;-79
2023/05/05 09:34:56;;;;;;;;;;;;;;;17.21;62.96;98896.59;5064680;28;19970;-79
2023/05/05 09:37:30;;;;;;;;;;;;;;;17.16;63.63;98895.88;5047597;28;19921;-79
2023/05/05 09:39:58;;;;;;;;;;;;;;;17.09;65.71;98906.22;5051438;28;19928;-79
2023/05/05 09:42:23;;;;;;;;;;;;;;;16.99;63.16;98896.34;5052826;28;20069;-79
2023/05/05 09:44:48;;;;;;;;;;;;;;;16.98;67.28;98894.75;5071059;28;20015;-79
2023/05/05 09:47:14;;;;;;;;;;;;;;;16.97;63.41;98898.53;5074064;28;19928;-78
2023/05/05 09:49:39;;;;;;;;;;;;;;;17.07;62.69;98897.63;5073981;28;19963;-79
2023/05/05 09:52:13;;;;;;;;;;;;;;;16.91;62.72;98901.59;5053691;28;19963;-79
2023/05/05 09:54:38;;;;;;;;;;;;;;;16.83;62.50;98908.44;5070164;28;20006;-79
2023/05/05 09:57:03;;;;;;;;;;;;;;;16.70;62.37;98908.31;5055684;28;20019;-79
2023/05/05 09:59:28;;;;;;;;;;;;;;;16.50;63.45;98909.31;5070710;28;20865;-78
2023/05/05 10:02:08;;;;;;;;;;;;;;;16.46;65.77;98916.34;5051528;28;20451;-78
2023/05/05 10:04:33;;;;;;;;;;;;;;;16.57;65.45;98917.06;5073310;28;19916;-78
2023/05/05 10:06:58;;;;;;;;;;;;;;;16.62;64.43;98906.25;5072788;28;20015;-78
2023/05/05 10:09:24;;;;;;;;;;;;;;;16.58;64.93;98905.22;5054339;28;19924;-79
2023/05/05 10:11:50;;;;;;;;;;;;;;;16.46;68.91;98908.25;5073109;28;19916;-79
2023/05/05 10:14:19;;;;;;;;;;;;;;;16.48;66.42;98906.88;5072823;28;19931;-78
2023/05/05 10:16:49;;;;;;;;;;;;;;;16.49;65.42;98910.38;5072117;28;19916;-79
2023/05/05 10:19:15;;;;;;;;;;;;;;;16.59;65.19;98915.69;5071936;28;19932;-79
2023/05/05 10:21:45;;;;;;;;;;;;;;;16.42;67.04;98910.69;5072648;28;20015;-78
2023/05/05 10:24:40;;;;;;;;;;;;;;;16.28;70.04;98911.66;5070300;28;19956;-78
2023/05/05 10:27:14;;;;;;;;;;;;;;;16.10;70.30;98915.03;5057969;28;19925;-78
2023/05/05 10:29:58;;;;;;;;;;;;;;;16.31;67.70;98916.50;5053306;28;19969;-78
2023/05/05 10:32:50;;;;;;;;;;;;;;;16.21;70.01;98911.19;5072831;28;19916;-79
2023/05/05 10:35:17;;;;;;;;;;;;;;;16.33;67.97;98909.75;5059879;28;19921;-78
2023/05/05 10:37:43;;;;;;;;;;;;;;;16.35;67.67;98902.19;5054214;28;19977;-79
2023/05/05 10:40:09;;;;;;;;;;;;;;;16.30;70.06;98898.72;5071688;28;19916;-78
2023/05/05 10:42:37;;;;;;;;;;;;;;;16.32;70.92;98894.66;5053413;28;19924;-78
2023/05/05 10:45:02;;;;;;;;;;;;;;;16.54;69.42;98888.00;5071412;28;19917;-78
2023/05/05 10:47:28;;;;;;;;;;;;;;;16.86;66.51;98890.88;5032380;28;19924;-78
2023/05/05 10:49:53;;;;;;;;;;;;;;;17.07;66.52;98887.63;5052167;28;19967;-78
2023/05/05 10:52:31;;;;;;;;;;;;;;;17.19;65.48;98882.63;5049170;28;19917;-78
2023/05/05 10:55:02;;;;;;;;;;;;;;;17.43;66.39;98882.53;5052104;28;20019;-78
2023/05/05 10:57:28;;;;;;;;;;;;;;;17.71;65.29;98888.94;5071693;28;20569;-79
2023/05/05 10:59:53;;;;;;;;;;;;;;;17.84;61.24;98883.56;5069755;28;19921;-78
2023/05/05 11:02:20;;;;;;;;;;;;;;;18.13;60.42;98887.97;5050888;28;19916;-79
2023/05/05 11:05:04;;;;;;;;;;;;;;;18.37;61.54;98881.31;5054356;28;20359;-79
2023/05/05 11:07:29;;;;;;;;;;;;;;;18.65;61.82;98879.47;5070748;28;19937;-78
2023/05/05 11:10:00;;;;;;;;;;;;;;;18.77;62.35;98877.06;5070832;28;19924;-79
2023/05/05 11:12:25;;;;;;;;;;;;;;;18.80;59.81;98871.06;5065116;28;19982;-79
2023/05/05 11:15:09;;;;;;;;;;;;;;;18.98;59.88;98872.84;5056287;28;20070;-78
2023/05/05 11:17:45;;;;;;;;;;;;;;;19.07;58.65;98872.94;5068335;28;20267;-78
2023/05/05 11:20:10;;;;;;;;;;;;;;;19.08;57.21;98874.53;5071490;28;19967;-78
2023/05/05 11:22:54;;;;;;;;;;;;;;;18.75;58.02;98875.75;5072021;28;19956;-79
2023/05/05 11:25:35;;;;;;;;;;;;;;;18.83;55.88;98870.44;5051884;28;19955;-78
2023/05/05 11:28:08;;;;;;;;;;;;;;;18.81;57.31;98875.34;5052048;28;19916;-78
2023/05/05 11:30:34;;;;;;;;;;;;;;;19.31;57.93;98865.38;5067317;28;20415;-78
2023/05/05 11:33:22;;;;;;;;;;;;;;;19.50;58.50;98866.06;5070744;28;20007;-78
2023/05/05 11:35:56;;;;;;;;;;;;;;;19.50;55.45;98857.94;5064300;28;19917;-79
2023/05/05 11:38:27;;;;;;;;;;;;;;;19.76;56.67;98858.13;5067460;28;20077;-79
2023/05/05 11:40:57;;;;;;;;;;;;;;;20.02;57.12;98854.50;5071773;28;19923;-79
2023/05/05 11:43:22;;;;;;;;;;;;;;;19.84;57.65;98851.97;5067388;28;19920;-79
2023/05/05 11:45:48;;;;;;;;;;;;;;;20.11;55.86;98846.41;5067412;28;20315;-79
2023/05/05 11:48:22;;;;;;;;;;;;;;;20.09;54.93;98848.66;5068937;28;19916;-79
2023/05/05 11:50:48;;;;;;;;;;;;;;;20.23;55.71;98848.56;5070555;28;19920;-79
2023/05/05 11:53:13;;;;;;;;;;;;;;;20.23;55.57;98843.94;5067361;28;19927;-79
2023/05/05 11:55:38;;;;;;;;;;;;;;;20.25;54.79;98840.94;5063476;28;20509;-79
2023/05/05 11:58:16;;;;;;;;;;;;;;;20.28;55.86;98841.13;5067071;28;20373;-79
2023/05/05 12:00:41;;;;;;;;;;;;;;;20.15;55.94;98841.97;5068191;28;19920;-79
2023/05/05 12:03:07;;;;;;;;;;;;;;;20.32;54.88;98833.97;5047431;28;20399;-78
2023/05/05 12:05:33;;;;;;;;;;;;;;;20.36;54.97;98828.69;5065961;28;19917;-78
2023/05/05 12:07:58;;;;;;;;;;;;;;;20.42;54.77;98825.53;5050969;28;20352;-79
2023/05/05 12:10:23;;;;;;;;;;;;;;;20.43;55.02;98823.63;5033906;28;19931;-79
2023/05/05 12:12:49;;;;;;;;;;;;;;;20.36;54.13;98828.69;5048579;28;19924;-79
2023/05/05 12:15:14;;;;;;;;;;;;;;;20.29;55.30;98829.16;5048620;28;19924;-79
2023/05/05 12:17:41;;;;;;;;;;;;;;;20.52;53.95;98824.47;5051416;28;19932;-79
2023/05/05 12:20:07;;;;;;;;;;;;;;;20.62;53.60;98821.50;5063837;28;19916;-79
2023/05/05 12:22:32;;;;;;;;;;;;;;;20.68;54.75;98829.16;5049786;28;19920;-79
2023/05/05 12:25:00;;;;;;;;;;;;;;;20.64;55.21;98811.13;5068965;28;20344;-79
2023/05/05 12:27:26;;;;;;;;;;;;;;;21.13;53.71;98816.19;5049884;28;19923;-79
2023/05/05 12:29:54;;;;;;;;;;;;;;;21.09;53.26;98819.84;5068505;28;19921;-79
2023/05/05 12:32:29;;;;;;;;;;;;;;;21.40;53.68;98825.97;5066857;28;19927;-79
2023/05/05 12:34:56;;;;;;;;;;;;;;;21.71;52.69;98818.41;5065354;28;19916;-79
2023/05/05 12:37:22;;;;;;;;;;;;;;;21.94;51.83;98800.03;5047185;28;19928;-79
2023/05/05 12:39:48;;;;;;;;;;;;;;;21.89;53.92;98803.72;5065317;28;20375;-79
2023/05/05 12:42:13;;;;;;;;;;;;;;;22.20;51.22;98814.34;5048645;28;20331;-79
2023/05/05 12:44:39;;;;;;;;;;;;;;;21.82;51.67;98816.97;5052184;28;19966;-79
2023/05/05 12:47:05;;;;;;;;;;;;;;;21.80;53.03;98813.75;5067671;28;19984;-79